createdAt,value
2022-07-25T00:00:43.375Z,18.39
2022-07-25T00:01:43.474Z,18.41
2022-07-25T00:02:43.355Z,18.37
2022-07-25T00:03:43.342Z,18.36
2022-07-25T00:04:43.405Z,18.39
2022-07-25T00:05:43.321Z,18.37
2022-07-25T00:06:43.310Z,18.33
2022-07-25T00:07:43.312Z,18.35
2022-07-25T00:08:43.286Z,18.29
2022-07-25T00:09:43.275Z,18.30
2022-07-25T00:10:43.290Z,18.36
2022-07-25T00:11:43.255Z,18.33
2022-07-25T00:12:43.348Z,18.30
2022-07-25T00:13:43.230Z,18.42
2022-07-25T00:14:43.223Z,18.44
2022-07-25T00:15:43.265Z,18.41
2022-07-25T00:16:43.220Z,18.42
2022-07-25T00:17:43.183Z,18.35
2022-07-25T00:18:43.308Z,18.47
2022-07-25T00:19:43.168Z,18.41
2022-07-25T00:20:43.150Z,18.36
2022-07-25T00:21:43.141Z,18.32
2022-07-25T00:22:43.149Z,18.39
2022-07-25T00:23:43.115Z,18.37
2022-07-25T00:24:43.311Z,18.37
2022-07-25T00:25:43.095Z,18.36
2022-07-25T00:26:43.085Z,18.36
2022-07-25T00:27:43.076Z,18.39
2022-07-25T00:28:43.074Z,18.35
2022-07-25T00:29:43.047Z,18.45
2022-07-25T00:30:43.055Z,18.47
2022-07-25T00:31:43.107Z,18.37
2022-07-25T00:32:43.012Z,18.48
2022-07-25T00:33:42.998Z,18.50
2022-07-25T00:34:43.014Z,18.51
2022-07-25T00:35:43.184Z,18.52
2022-07-25T00:36:42.973Z,18.52
2022-07-25T00:37:42.955Z,18.52
2022-07-25T00:38:42.953Z,18.57
2022-07-25T00:39:42.982Z,18.50
2022-07-25T00:40:42.942Z,18.52
2022-07-25T00:41:42.939Z,18.54
2022-07-25T00:42:42.907Z,18.47
2022-07-25T00:43:42.894Z,18.50
2022-07-25T00:44:42.888Z,18.48
2022-07-25T00:45:42.872Z,18.54
2022-07-25T00:46:43.000Z,18.51
2022-07-25T00:47:42.851Z,18.48
2022-07-25T00:48:42.879Z,18.47
2022-07-25T00:49:42.828Z,18.50
2022-07-25T00:50:42.820Z,18.47
2022-07-25T00:52:01.240Z,18.47
2022-07-25T00:52:42.796Z,18.48
2022-07-25T00:53:43.168Z,18.37
2022-07-25T00:54:42.772Z,18.42
2022-07-25T00:55:42.759Z,18.41
2022-07-25T00:56:42.756Z,18.36
2022-07-25T00:57:42.768Z,18.36
2022-07-25T00:58:42.756Z,18.33
2022-07-25T00:59:42.716Z,18.33
2022-07-25T01:00:42.700Z,18.35
2022-07-25T01:01:42.795Z,18.35
2022-07-25T01:02:42.784Z,18.30
2022-07-25T01:03:42.721Z,18.26
2022-07-25T01:04:42.662Z,18.29
2022-07-25T01:05:42.650Z,18.27
2022-07-25T01:06:42.639Z,18.26
2022-07-25T01:07:42.626Z,18.26
2022-07-25T01:08:42.699Z,18.25
2022-07-25T01:09:42.602Z,18.21
2022-07-25T01:10:42.595Z,18.17
2022-07-25T01:11:42.592Z,18.15
2022-07-25T01:12:42.566Z,18.17
2022-07-25T01:13:42.599Z,18.14
2022-07-25T01:14:42.592Z,18.15
2022-07-25T01:15:42.585Z,18.15
2022-07-25T01:16:42.525Z,18.14
2022-07-25T01:17:42.524Z,18.14
2022-07-25T01:18:42.547Z,18.12
2022-07-25T01:19:42.497Z,18.05
2022-07-25T01:20:42.532Z,18.02
2022-07-25T01:21:42.488Z,18.02
2022-07-25T01:22:42.459Z,17.99
2022-07-25T01:23:42.445Z,17.97
2022-07-25T01:24:42.463Z,17.90
2022-07-25T01:25:42.435Z,17.82
2022-07-25T01:26:42.443Z,17.77
2022-07-25T01:27:42.400Z,17.77
2022-07-25T01:28:42.390Z,17.77
2022-07-25T01:29:42.435Z,17.79
2022-07-25T01:30:42.431Z,17.74
2022-07-25T01:31:42.352Z,17.72
2022-07-25T01:32:42.364Z,17.72
2022-07-25T01:33:42.340Z,17.75
2022-07-25T01:34:42.322Z,17.71
2022-07-25T01:35:43.630Z,17.68
2022-07-25T01:36:42.305Z,17.75
2022-07-25T01:37:42.347Z,17.70
2022-07-25T01:38:42.291Z,17.64
2022-07-25T01:39:42.271Z,17.64
2022-07-25T01:40:42.288Z,17.56
2022-07-25T01:41:42.252Z,17.63
2022-07-25T01:42:42.233Z,17.59
2022-07-25T01:43:42.233Z,17.56
2022-07-25T01:44:42.237Z,17.54
2022-07-25T01:45:42.231Z,17.64
2022-07-25T01:46:42.236Z,17.62
2022-07-25T01:47:42.179Z,17.64
2022-07-25T01:48:42.233Z,17.68
2022-07-25T01:49:42.158Z,17.68
2022-07-25T01:50:42.219Z,17.75
2022-07-25T01:51:42.136Z,17.68
2022-07-25T01:52:42.146Z,17.68
2022-07-25T01:53:42.120Z,17.77
2022-07-25T01:54:42.105Z,17.75
2022-07-25T01:55:42.091Z,17.74
2022-07-25T01:56:42.124Z,17.79
2022-07-25T01:57:49.480Z,17.78
2022-07-25T01:58:43.052Z,17.84
2022-07-25T01:59:42.045Z,17.86
2022-07-25T02:00:42.031Z,17.87
2022-07-25T02:01:42.144Z,17.90
2022-07-25T02:02:42.058Z,17.92
2022-07-25T02:03:53.054Z,17.93
2022-07-25T02:04:42.172Z,18.00
2022-07-25T02:05:55.382Z,17.99
2022-07-25T02:07:10.003Z,18.02
2022-07-25T02:07:50.682Z,18.14
2022-07-25T02:08:41.993Z,18.15
2022-07-25T02:09:42.002Z,18.21
2022-07-25T02:10:41.971Z,18.27
2022-07-25T02:11:41.945Z,18.11
2022-07-25T02:12:47.348Z,18.21
2022-07-25T02:13:42.093Z,18.23
2022-07-25T02:14:42.746Z,18.21
2022-07-25T02:15:41.873Z,18.26
2022-07-25T02:16:56.404Z,18.23
2022-07-25T02:17:42.031Z,18.23
2022-07-25T02:18:41.953Z,18.27
2022-07-25T02:19:41.873Z,18.17
2022-07-25T02:20:41.827Z,18.23
2022-07-25T02:21:41.878Z,18.27
2022-07-25T02:22:41.992Z,18.21
2022-07-25T02:23:41.973Z,18.18
2022-07-25T02:24:41.791Z,18.20
2022-07-25T02:25:41.763Z,18.17
2022-07-25T02:26:41.763Z,18.21
2022-07-25T02:27:41.751Z,18.14
2022-07-25T02:28:41.753Z,18.14
2022-07-25T02:29:41.709Z,18.11
2022-07-25T02:30:41.825Z,18.17
2022-07-25T02:31:41.686Z,18.20
2022-07-25T02:32:42.248Z,18.23
2022-07-25T02:33:46.770Z,18.29
2022-07-25T02:34:41.657Z,18.26
2022-07-25T02:35:41.658Z,18.14
2022-07-25T02:36:41.648Z,18.10
2022-07-25T02:37:41.646Z,18.10
2022-07-25T02:38:41.617Z,18.15
2022-07-25T02:39:41.600Z,18.07
2022-07-25T02:40:41.588Z,18.05
2022-07-25T02:41:41.651Z,18.05
2022-07-25T02:42:41.564Z,18.02
2022-07-25T02:43:41.555Z,18.05
2022-07-25T02:44:41.545Z,17.92
2022-07-25T02:45:41.558Z,17.92
2022-07-25T02:46:41.523Z,17.89
2022-07-25T02:47:41.601Z,17.89
2022-07-25T02:48:41.541Z,17.86
2022-07-25T02:49:41.494Z,17.86
2022-07-25T02:50:41.478Z,17.81
2022-07-25T02:51:41.465Z,17.81
2022-07-25T02:52:41.455Z,17.77
2022-07-25T02:53:56.717Z,17.72
2022-07-25T02:54:41.438Z,17.70
2022-07-25T02:55:41.424Z,17.74
2022-07-25T02:56:41.417Z,17.62
2022-07-25T02:57:42.253Z,17.62
2022-07-25T02:58:41.490Z,17.62
2022-07-25T02:59:41.397Z,17.49
2022-07-25T03:00:41.362Z,17.55
2022-07-25T03:01:41.400Z,17.52
2022-07-25T03:02:41.344Z,17.41
2022-07-25T03:03:41.378Z,17.44
2022-07-25T03:04:42.814Z,17.43
2022-07-25T03:05:41.331Z,17.46
2022-07-25T03:06:51.674Z,17.44
2022-07-25T03:07:41.350Z,17.48
2022-07-25T03:08:41.352Z,17.36
2022-07-25T03:09:41.287Z,17.33
2022-07-25T03:10:41.369Z,17.33
2022-07-25T03:11:41.263Z,17.23
2022-07-25T03:12:41.311Z,17.33
2022-07-25T03:13:41.404Z,17.31
2022-07-25T03:14:41.262Z,17.26
2022-07-25T03:15:50.769Z,17.21
2022-07-25T03:16:41.256Z,17.22
2022-07-25T03:17:41.245Z,17.19
2022-07-25T03:18:41.227Z,17.08
2022-07-25T03:19:46.439Z,17.07
2022-07-25T03:20:41.198Z,17.11
2022-07-25T03:21:49.849Z,16.98
2022-07-25T03:22:41.214Z,16.96
2022-07-25T03:23:41.147Z,16.89
2022-07-25T03:24:41.169Z,16.85
2022-07-25T03:25:46.545Z,16.86
2022-07-25T03:26:41.296Z,16.88
2022-07-25T03:27:41.082Z,16.86
2022-07-25T03:28:41.062Z,16.89
2022-07-25T03:29:55.141Z,16.81
2022-07-25T03:30:41.216Z,16.76
2022-07-25T03:31:46.439Z,16.82
2022-07-25T03:32:41.001Z,16.73
2022-07-25T03:33:41.025Z,16.81
2022-07-25T03:34:40.983Z,16.76
2022-07-25T03:35:40.968Z,16.71
2022-07-25T03:36:40.959Z,16.57
2022-07-25T03:38:31.006Z,16.67
2022-07-25T03:38:40.957Z,16.66
2022-07-25T03:39:41.023Z,16.61
2022-07-25T03:40:51.530Z,16.50
2022-07-25T03:41:40.966Z,16.58
2022-07-25T03:42:40.966Z,16.52
2022-07-25T03:43:40.928Z,16.48
2022-07-25T03:44:40.913Z,16.50
2022-07-25T03:45:46.106Z,16.46
2022-07-25T03:46:41.060Z,16.46
2022-07-25T03:47:40.852Z,16.39
2022-07-25T03:48:40.912Z,16.33
2022-07-25T03:49:40.834Z,16.35
2022-07-25T03:50:40.796Z,16.34
2022-07-25T03:51:40.787Z,16.34
2022-07-25T03:53:12.850Z,16.38
2022-07-25T03:53:46.069Z,16.30
2022-07-25T03:54:40.796Z,16.34
2022-07-25T03:55:40.804Z,16.34
2022-07-25T03:56:44.058Z,16.25
2022-07-25T03:57:40.933Z,16.15
2022-07-25T03:58:40.735Z,16.24
2022-07-25T03:59:40.743Z,16.27
2022-07-25T04:00:40.770Z,16.20
2022-07-25T04:01:50.242Z,16.30
2022-07-25T04:02:40.804Z,16.27
2022-07-25T04:03:40.700Z,16.24
2022-07-25T04:04:40.703Z,16.25
2022-07-25T04:05:50.232Z,16.21
2022-07-25T04:06:50.659Z,16.23
2022-07-25T04:08:10.287Z,16.23
2022-07-25T04:08:40.635Z,16.25
2022-07-25T04:09:40.633Z,16.24
2022-07-25T04:10:40.640Z,16.25
2022-07-25T04:11:40.630Z,16.17
2022-07-25T04:12:40.654Z,16.25
2022-07-25T04:13:40.726Z,16.24
2022-07-25T04:14:40.543Z,16.21
2022-07-25T04:15:40.520Z,16.14
2022-07-25T04:16:49.321Z,16.23
2022-07-25T04:17:40.650Z,16.27
2022-07-25T04:18:40.559Z,16.23
2022-07-25T04:19:40.545Z,16.24
2022-07-25T04:20:40.752Z,16.24
2022-07-25T04:21:40.475Z,16.24
2022-07-25T04:22:44.789Z,16.20
2022-07-25T04:23:50.035Z,16.21
2022-07-25T04:24:40.480Z,16.21
2022-07-25T04:25:40.487Z,16.31
2022-07-25T04:26:40.457Z,16.23
2022-07-25T04:27:40.521Z,16.31
2022-07-25T04:28:40.592Z,16.33
2022-07-25T04:29:40.397Z,16.30
2022-07-25T04:30:40.353Z,16.35
2022-07-25T04:31:40.383Z,16.38
2022-07-25T04:32:40.394Z,16.34
2022-07-25T04:33:40.328Z,16.39
2022-07-25T04:34:40.312Z,16.43
2022-07-25T04:35:40.325Z,16.43
2022-07-25T04:36:40.294Z,16.45
2022-07-25T04:37:40.632Z,16.46
2022-07-25T04:39:32.700Z,16.48
2022-07-25T04:40:32.079Z,16.50
2022-07-25T04:41:32.069Z,16.56
2022-07-25T04:42:33.010Z,16.64
2022-07-25T04:43:32.016Z,16.58
2022-07-25T04:44:31.986Z,16.64
2022-07-25T04:45:32.030Z,16.75
2022-07-25T04:46:31.970Z,16.78
2022-07-25T04:47:31.945Z,16.73
2022-07-25T04:48:37.266Z,16.83
2022-07-25T04:49:31.919Z,16.83
2022-07-25T04:50:31.910Z,16.88
2022-07-25T04:51:31.925Z,16.83
2022-07-25T04:52:31.938Z,16.97
2022-07-25T04:53:31.877Z,17.04
2022-07-25T04:54:31.883Z,17.08
2022-07-25T04:55:31.845Z,17.28
2022-07-25T04:56:31.870Z,17.34
2022-07-25T04:57:31.821Z,17.43
2022-07-25T04:58:31.810Z,17.38
2022-07-25T04:59:31.895Z,17.48
2022-07-25T05:00:31.821Z,17.40
2022-07-25T05:01:31.861Z,17.49
2022-07-25T05:02:31.886Z,17.62
2022-07-25T05:03:31.759Z,17.58
2022-07-25T05:04:31.766Z,17.75
2022-07-25T05:05:31.750Z,17.78
2022-07-25T05:06:31.731Z,17.81
2022-07-25T05:07:31.714Z,17.89
2022-07-25T05:08:31.690Z,18.00
2022-07-25T05:09:31.694Z,18.07
2022-07-25T05:10:31.721Z,18.08
2022-07-25T05:11:31.662Z,18.14
2022-07-25T05:12:31.652Z,18.12
2022-07-25T05:13:31.656Z,18.23
2022-07-25T05:14:31.633Z,18.14
2022-07-25T05:15:31.720Z,18.20
2022-07-25T05:16:31.843Z,18.32
2022-07-25T05:17:31.692Z,18.37
2022-07-25T05:18:31.589Z,18.48
2022-07-25T05:19:31.578Z,18.58
2022-07-25T05:20:31.556Z,18.66
2022-07-25T05:21:31.589Z,18.70
2022-07-25T05:22:31.552Z,18.69
2022-07-25T05:23:31.525Z,18.76
2022-07-25T05:24:31.515Z,18.81
2022-07-25T05:25:31.508Z,18.95
2022-07-25T05:26:31.493Z,19.04
2022-07-25T05:27:31.503Z,19.08
2022-07-25T05:28:31.503Z,19.14
2022-07-25T05:29:31.470Z,19.16
2022-07-25T05:30:35.299Z,19.18
2022-07-25T05:31:32.500Z,19.28
2022-07-25T05:32:31.527Z,19.40
2022-07-25T05:33:31.425Z,19.37
2022-07-25T05:34:31.426Z,19.44
2022-07-25T05:35:31.400Z,19.47
2022-07-25T05:36:31.392Z,19.54
2022-07-25T05:37:31.377Z,19.48
2022-07-25T05:38:31.431Z,19.51
2022-07-25T05:39:31.353Z,19.63
2022-07-25T05:40:31.362Z,19.63
2022-07-25T05:41:31.411Z,19.66
2022-07-25T05:42:31.329Z,19.84
2022-07-25T05:43:31.373Z,19.92
2022-07-25T05:44:31.315Z,19.91
2022-07-25T05:45:31.293Z,20.06
2022-07-25T05:46:31.323Z,20.08
2022-07-25T05:47:31.266Z,20.11
2022-07-25T05:48:31.314Z,20.20
2022-07-25T05:49:31.255Z,20.35
2022-07-25T05:50:31.232Z,20.17
2022-07-25T05:51:31.220Z,20.39
2022-07-25T05:52:31.217Z,20.36
2022-07-25T05:53:31.203Z,20.41
2022-07-25T05:54:31.444Z,20.47
2022-07-25T05:55:31.181Z,20.64
2022-07-25T05:56:31.166Z,20.61
2022-07-25T05:57:31.155Z,20.67
2022-07-25T05:58:31.130Z,20.76
2022-07-25T05:59:31.131Z,20.88
2022-07-25T06:00:31.165Z,21.01
2022-07-25T06:01:31.156Z,21.21
2022-07-25T06:02:31.277Z,21.16
2022-07-25T06:03:31.153Z,21.19
2022-07-25T06:04:31.142Z,21.17
2022-07-25T06:05:31.267Z,21.21
2022-07-25T06:06:31.049Z,21.24
2022-07-25T06:07:31.088Z,21.42
2022-07-25T06:08:31.049Z,21.27
2022-07-25T06:09:31.044Z,21.38
2022-07-25T06:10:31.008Z,21.42
2022-07-25T06:11:31.083Z,21.50
2022-07-25T06:12:30.980Z,21.53
2022-07-25T06:13:31.005Z,21.50
2022-07-25T06:14:31.081Z,21.61
2022-07-25T06:15:30.962Z,21.61
2022-07-25T06:16:31.373Z,21.58
2022-07-25T06:17:32.616Z,21.62
2022-07-25T06:18:30.925Z,21.62
2022-07-25T06:19:30.910Z,21.65
2022-07-25T06:20:30.887Z,21.75
2022-07-25T06:21:30.883Z,22.03
2022-07-25T06:22:30.909Z,22.10
2022-07-25T06:23:30.862Z,22.20
2022-07-25T06:24:30.901Z,22.24
2022-07-25T06:25:30.849Z,22.31
2022-07-25T06:26:30.834Z,22.30
2022-07-25T06:27:30.933Z,22.36
2022-07-25T06:28:30.808Z,22.36
2022-07-25T06:29:30.847Z,22.51
2022-07-25T06:30:30.779Z,22.62
2022-07-25T06:31:30.800Z,22.60
2022-07-25T06:32:30.761Z,22.67
2022-07-25T06:33:30.766Z,22.70
2022-07-25T06:34:30.756Z,22.62
2022-07-25T06:35:30.724Z,22.73
2022-07-25T06:36:32.285Z,22.76
2022-07-25T06:37:30.722Z,22.79
2022-07-25T06:38:30.734Z,22.79
2022-07-25T06:39:30.775Z,22.86
2022-07-25T06:40:30.669Z,23.10
2022-07-25T06:41:30.660Z,23.28
2022-07-25T06:42:30.666Z,23.20
2022-07-25T06:43:30.645Z,23.20
2022-07-25T06:44:30.654Z,23.35
2022-07-25T06:45:30.617Z,23.32
2022-07-25T06:46:30.639Z,23.31
2022-07-25T06:47:35.527Z,23.54
2022-07-25T06:48:31.702Z,23.70
2022-07-25T06:49:30.629Z,23.80
2022-07-25T06:50:30.571Z,23.95
2022-07-25T06:51:30.593Z,24.12
2022-07-25T06:52:30.531Z,24.58
2022-07-25T06:53:30.518Z,25.03
2022-07-25T06:54:30.614Z,25.42
2022-07-25T06:55:30.512Z,25.75
2022-07-25T06:56:30.500Z,26.15
2022-07-25T06:57:30.536Z,26.32
2022-07-25T06:58:30.463Z,26.62
2022-07-25T06:59:30.500Z,26.82
2022-07-25T07:00:30.471Z,27.14
2022-07-25T07:01:30.562Z,27.28
2022-07-25T07:02:30.420Z,27.44
2022-07-25T07:03:30.443Z,27.70
2022-07-25T07:04:31.086Z,27.72
2022-07-25T07:05:30.412Z,27.75
2022-07-25T07:06:30.377Z,27.85
2022-07-25T07:07:51.417Z,27.84
2022-07-25T07:08:30.373Z,27.85
2022-07-25T07:09:30.369Z,27.97
2022-07-25T07:10:31.084Z,28.03
2022-07-25T07:11:30.373Z,28.25
2022-07-25T07:12:30.333Z,28.33
2022-07-25T07:13:30.306Z,28.06
2022-07-25T07:14:30.291Z,27.87
2022-07-25T07:15:30.277Z,27.93
2022-07-25T07:16:30.403Z,28.07
2022-07-25T07:17:30.258Z,28.34
2022-07-25T07:18:30.253Z,28.46
2022-07-25T07:19:30.245Z,28.67
2022-07-25T07:20:30.225Z,28.68
2022-07-25T07:21:30.210Z,28.86
2022-07-25T07:22:30.222Z,28.89
2022-07-25T07:23:30.211Z,28.95
2022-07-25T07:24:30.175Z,28.93
2022-07-25T07:25:30.171Z,28.68
2022-07-25T07:26:30.159Z,28.19
2022-07-25T07:27:30.158Z,28.14
2022-07-25T07:28:30.148Z,28.12
2022-07-25T07:29:30.155Z,28.03
2022-07-25T07:30:58.561Z,28.15
2022-07-25T07:31:31.203Z,28.36
2022-07-25T07:32:30.101Z,28.56
2022-07-25T07:33:30.088Z,28.54
2022-07-25T07:34:30.074Z,28.71
2022-07-25T07:35:30.105Z,28.90
2022-07-25T07:36:31.096Z,28.96
2022-07-25T07:37:35.770Z,29.21
2022-07-25T07:38:31.037Z,29.34
2022-07-25T07:39:30.117Z,29.41
2022-07-25T07:40:30.016Z,29.33
2022-07-25T07:41:30.002Z,29.39
2022-07-25T07:42:30.034Z,29.30
2022-07-25T07:43:30.485Z,29.37
2022-07-25T07:44:29.964Z,29.36
2022-07-25T07:45:29.948Z,29.36
2022-07-25T07:46:30.018Z,29.49
2022-07-25T07:47:29.932Z,29.43
2022-07-25T07:48:30.022Z,29.64
2022-07-25T07:49:29.976Z,29.64
2022-07-25T07:50:29.898Z,29.71
2022-07-25T07:51:29.894Z,29.87
2022-07-25T07:52:29.881Z,29.92
2022-07-25T07:53:29.902Z,29.46
2022-07-25T07:54:29.860Z,28.81
2022-07-25T07:55:29.879Z,28.62
2022-07-25T07:56:29.861Z,28.46
2022-07-25T07:57:29.832Z,28.39
2022-07-25T07:58:29.823Z,28.43
2022-07-25T07:59:29.832Z,28.54
2022-07-25T08:00:29.800Z,28.77
2022-07-25T08:01:29.911Z,28.70
2022-07-25T08:02:29.845Z,28.58
2022-07-25T08:03:29.766Z,28.59
2022-07-25T08:04:29.779Z,28.67
2022-07-25T08:05:29.741Z,28.88
2022-07-25T08:06:29.740Z,28.96
2022-07-25T08:07:29.750Z,29.19
2022-07-25T08:08:31.577Z,29.41
2022-07-25T08:09:32.231Z,29.53
2022-07-25T08:10:29.829Z,29.65
2022-07-25T08:11:29.695Z,29.87
2022-07-25T08:12:29.689Z,29.78
2022-07-25T08:13:30.470Z,29.74
2022-07-25T08:14:29.646Z,29.89
2022-07-25T08:15:29.685Z,29.97
2022-07-25T08:16:29.734Z,30.05
2022-07-25T08:17:29.694Z,30.17
2022-07-25T08:18:29.628Z,30.34
2022-07-25T08:19:29.594Z,30.17
2022-07-25T08:20:37.845Z,29.87
2022-07-25T08:21:30.593Z,29.80
2022-07-25T08:22:29.562Z,29.87
2022-07-25T08:23:29.573Z,29.90
2022-07-25T08:24:29.533Z,29.85
2022-07-25T08:25:29.524Z,29.86
2022-07-25T08:26:29.558Z,29.83
2022-07-25T08:27:29.506Z,30.02
2022-07-25T08:28:29.497Z,30.23
2022-07-25T08:29:29.503Z,30.31
2022-07-25T08:30:29.486Z,30.46
2022-07-25T08:31:29.521Z,30.61
2022-07-25T08:32:29.473Z,30.79
2022-07-25T08:33:29.439Z,30.79
2022-07-25T08:34:29.457Z,30.11
2022-07-25T08:35:29.416Z,29.43
2022-07-25T08:36:34.550Z,28.81
2022-07-25T08:37:30.421Z,28.66
2022-07-25T08:38:29.379Z,28.77
2022-07-25T08:39:29.381Z,29.04
2022-07-25T08:40:29.382Z,29.30
2022-07-25T08:41:29.349Z,29.45
2022-07-25T08:42:29.353Z,29.63
2022-07-25T08:43:29.384Z,29.89
2022-07-25T08:44:29.314Z,29.73
2022-07-25T08:45:29.308Z,29.87
2022-07-25T08:46:29.332Z,30.13
2022-07-25T08:47:29.284Z,30.26
2022-07-25T08:48:29.321Z,30.39
2022-07-25T08:49:29.283Z,30.64
2022-07-25T08:50:29.251Z,30.70
2022-07-25T08:51:29.241Z,30.76
2022-07-25T08:52:29.230Z,30.82
2022-07-25T08:53:33.318Z,30.65
2022-07-25T08:54:29.265Z,30.67
2022-07-25T08:55:29.211Z,30.76
2022-07-25T08:56:29.185Z,30.95
2022-07-25T08:57:29.227Z,31.04
2022-07-25T08:58:29.180Z,30.98
2022-07-25T08:59:29.157Z,30.86
2022-07-25T09:00:29.367Z,30.79
2022-07-25T09:01:32.984Z,30.64
2022-07-25T09:02:30.251Z,30.55
2022-07-25T09:03:29.212Z,30.69
2022-07-25T09:04:29.120Z,30.73
2022-07-25T09:05:29.782Z,30.65
2022-07-25T09:06:29.154Z,30.89
2022-07-25T09:07:29.332Z,31.02
2022-07-25T09:08:29.126Z,30.97
2022-07-25T09:09:29.052Z,31.01
2022-07-25T09:10:29.041Z,31.10
2022-07-25T09:11:29.050Z,31.07
2022-07-25T09:12:29.042Z,31.10
2022-07-25T09:13:29.003Z,31.16
2022-07-25T09:14:29.023Z,31.17
2022-07-25T09:15:29.113Z,31.20
2022-07-25T09:16:29.034Z,31.19
2022-07-25T09:17:28.965Z,31.32
2022-07-25T09:18:28.965Z,31.20
2022-07-25T09:19:28.943Z,31.19
2022-07-25T09:20:28.930Z,31.21
2022-07-25T09:21:28.959Z,31.26
2022-07-25T09:22:28.914Z,31.23
2022-07-25T09:23:28.919Z,31.25
2022-07-25T09:24:28.896Z,31.26
2022-07-25T09:25:28.885Z,31.13
2022-07-25T09:26:28.909Z,31.16
2022-07-25T09:27:28.882Z,31.23
2022-07-25T09:28:28.848Z,31.16
2022-07-25T09:29:28.836Z,31.23
2022-07-25T09:30:28.827Z,31.23
2022-07-25T09:31:28.903Z,31.26
2022-07-25T09:32:28.824Z,31.29
2022-07-25T09:33:28.810Z,31.20
2022-07-25T09:34:28.791Z,31.43
2022-07-25T09:35:28.779Z,31.38
2022-07-25T09:36:28.762Z,31.38
2022-07-25T09:37:28.774Z,31.38
2022-07-25T09:38:28.742Z,31.39
2022-07-25T09:39:28.748Z,31.50
2022-07-25T09:40:28.716Z,31.50
2022-07-25T09:41:28.716Z,31.43
2022-07-25T09:42:28.728Z,31.41
2022-07-25T09:43:28.688Z,31.48
2022-07-25T09:44:28.703Z,31.41
2022-07-25T09:45:31.549Z,31.39
2022-07-25T09:46:28.698Z,31.54
2022-07-25T09:47:28.733Z,31.62
2022-07-25T09:48:28.668Z,31.70
2022-07-25T09:49:28.629Z,31.88
2022-07-25T09:50:28.641Z,31.89
2022-07-25T09:51:28.609Z,31.80
2022-07-25T09:52:28.594Z,32.01
2022-07-25T09:53:28.602Z,32.10
2022-07-25T09:54:28.571Z,32.03
2022-07-25T09:55:28.566Z,32.04
2022-07-25T09:56:28.574Z,32.19
2022-07-25T09:57:28.539Z,32.21
2022-07-25T09:58:28.550Z,32.29
2022-07-25T09:59:28.522Z,32.15
2022-07-25T10:00:28.530Z,32.14
2022-07-25T10:01:28.565Z,32.26
2022-07-25T10:02:28.552Z,32.19
2022-07-25T10:03:28.516Z,32.25
2022-07-25T10:04:28.481Z,32.33
2022-07-25T10:05:28.463Z,32.29
2022-07-25T10:06:28.471Z,32.07
2022-07-25T10:07:31.558Z,31.35
2022-07-25T10:08:28.455Z,30.24
2022-07-25T10:09:28.434Z,30.23
2022-07-25T10:10:28.426Z,30.31
2022-07-25T10:11:28.402Z,30.51
2022-07-25T10:12:28.381Z,30.46
2022-07-25T10:13:28.399Z,30.67
2022-07-25T10:14:28.381Z,30.97
2022-07-25T10:15:28.361Z,31.01
2022-07-25T10:16:28.376Z,31.28
2022-07-25T10:17:28.354Z,31.41
2022-07-25T10:18:28.359Z,31.57
2022-07-25T10:19:28.322Z,31.65
2022-07-25T10:20:28.310Z,31.84
2022-07-25T10:21:28.860Z,31.85
2022-07-25T10:22:53.816Z,31.89
2022-07-25T10:23:29.267Z,32.04
2022-07-25T10:24:28.298Z,32.04
2022-07-25T10:25:28.248Z,32.13
2022-07-25T10:26:28.234Z,32.11
2022-07-25T10:27:28.228Z,32.08
2022-07-25T10:28:28.347Z,31.95
2022-07-25T10:29:28.252Z,31.76
2022-07-25T10:30:28.247Z,31.56
2022-07-25T10:31:28.251Z,31.12
2022-07-25T10:32:28.172Z,30.86
2022-07-25T10:33:28.159Z,30.65
2022-07-25T10:34:28.151Z,30.64
2022-07-25T10:35:28.177Z,30.64
2022-07-25T10:36:28.126Z,30.80
2022-07-25T10:37:28.250Z,30.99
2022-07-25T10:38:28.103Z,31.20
2022-07-25T10:39:28.097Z,31.19
2022-07-25T10:40:28.087Z,31.44
2022-07-25T10:41:28.091Z,31.51
2022-07-25T10:42:28.062Z,31.73
2022-07-25T10:43:28.082Z,31.85
2022-07-25T10:44:28.043Z,31.84
2022-07-25T10:45:28.039Z,32.03
2022-07-25T10:46:28.182Z,32.08
2022-07-25T10:47:28.012Z,32.15
2022-07-25T10:48:28.059Z,32.19
2022-07-25T10:49:32.345Z,32.04
2022-07-25T10:50:53.432Z,31.25
2022-07-25T10:51:29.044Z,30.99
2022-07-25T10:52:27.960Z,30.89
2022-07-25T10:53:27.953Z,30.99
2022-07-25T10:54:27.936Z,31.25
2022-07-25T10:55:27.951Z,31.53
2022-07-25T10:56:27.914Z,31.69
2022-07-25T10:57:31.748Z,31.86
2022-07-25T10:58:28.100Z,32.08
2022-07-25T10:59:27.890Z,32.32
2022-07-25T11:00:27.875Z,32.48
2022-07-25T11:01:27.923Z,32.70
2022-07-25T11:02:27.930Z,32.84
2022-07-25T11:03:27.847Z,32.89
2022-07-25T11:04:27.839Z,33.00
2022-07-25T11:05:27.829Z,33.09
2022-07-25T11:06:27.810Z,33.16
2022-07-25T11:07:27.850Z,33.29
2022-07-25T11:08:27.786Z,33.34
2022-07-25T11:09:28.230Z,33.38
2022-07-25T11:10:27.774Z,33.38
2022-07-25T11:11:27.775Z,33.38
2022-07-25T11:12:27.754Z,33.54
2022-07-25T11:13:28.071Z,33.54
2022-07-25T11:14:27.730Z,33.44
2022-07-25T11:15:27.722Z,33.49
2022-07-25T11:16:27.757Z,33.50
2022-07-25T11:17:27.695Z,33.44
2022-07-25T11:18:27.686Z,33.34
2022-07-25T11:19:27.717Z,33.28
2022-07-25T11:20:27.667Z,33.19
2022-07-25T11:21:27.658Z,33.15
2022-07-25T11:22:27.660Z,33.09
2022-07-25T11:23:27.636Z,33.14
2022-07-25T11:24:27.685Z,33.11
2022-07-25T11:25:27.687Z,32.99
2022-07-25T11:26:27.604Z,32.94
2022-07-25T11:27:27.723Z,32.99
2022-07-25T11:28:27.600Z,32.89
2022-07-25T11:29:27.570Z,32.96
2022-07-25T11:30:27.599Z,33.07
2022-07-25T11:31:27.610Z,32.29
2022-07-25T11:32:27.541Z,31.54
2022-07-25T11:33:27.539Z,31.19
2022-07-25T11:34:27.532Z,30.91
2022-07-25T11:35:27.503Z,30.46
2022-07-25T11:36:27.532Z,30.42
2022-07-25T11:37:27.485Z,30.61
2022-07-25T11:38:27.473Z,30.55
2022-07-25T11:39:27.463Z,30.55
2022-07-25T11:40:27.457Z,30.79
2022-07-25T11:41:27.505Z,31.09
2022-07-25T11:42:27.448Z,31.47
2022-07-25T11:43:27.419Z,31.50
2022-07-25T11:44:27.409Z,31.61
2022-07-25T11:45:27.537Z,31.78
2022-07-25T11:46:27.472Z,31.91
2022-07-25T11:47:27.398Z,32.08
2022-07-25T11:48:27.454Z,32.14
2022-07-25T11:49:27.390Z,32.30
2022-07-25T11:50:27.366Z,32.51
2022-07-25T11:51:27.339Z,32.45
2022-07-25T11:52:27.342Z,32.41
2022-07-25T11:53:27.322Z,32.51
2022-07-25T11:54:27.326Z,32.67
2022-07-25T11:55:27.302Z,32.77
2022-07-25T11:56:43.595Z,32.57
2022-07-25T11:57:28.290Z,32.29
2022-07-25T11:58:27.270Z,31.75
2022-07-25T11:59:27.256Z,31.44
2022-07-25T12:00:27.260Z,31.32
2022-07-25T12:01:27.234Z,31.25
2022-07-25T12:02:27.399Z,31.19
2022-07-25T12:03:27.304Z,30.95
2022-07-25T12:04:27.202Z,30.98
2022-07-25T12:05:27.199Z,30.75
2022-07-25T12:06:27.205Z,30.69
2022-07-25T12:07:27.531Z,30.94
2022-07-25T12:08:27.170Z,31.21
2022-07-25T12:09:27.147Z,31.57
2022-07-25T12:10:27.141Z,31.89
2022-07-25T12:11:27.132Z,32.22
2022-07-25T12:12:27.159Z,32.55
2022-07-25T12:13:27.128Z,32.45
2022-07-25T12:14:27.090Z,32.45
2022-07-25T12:15:27.087Z,31.39
2022-07-25T12:16:27.099Z,30.92
2022-07-25T12:17:27.061Z,31.04
2022-07-25T12:18:27.091Z,31.13
2022-07-25T12:19:27.038Z,31.09
2022-07-25T12:20:27.033Z,30.98
2022-07-25T12:21:27.018Z,30.97
2022-07-25T12:22:27.018Z,31.14
2022-07-25T12:23:27.023Z,31.29
2022-07-25T12:24:27.018Z,31.58
2022-07-25T12:25:30.853Z,31.86
2022-07-25T12:26:26.974Z,31.99
2022-07-25T12:27:26.959Z,31.44
2022-07-25T12:28:26.996Z,31.62
2022-07-25T12:29:26.943Z,31.91
2022-07-25T12:30:27.019Z,32.18
2022-07-25T12:31:26.971Z,32.60
2022-07-25T12:32:26.910Z,32.79
2022-07-25T12:33:26.890Z,33.14
2022-07-25T12:34:26.898Z,33.16
2022-07-25T12:35:26.882Z,33.31
2022-07-25T12:36:26.882Z,32.94
2022-07-25T12:37:26.903Z,33.07
2022-07-25T12:38:26.846Z,32.93
2022-07-25T12:39:26.850Z,32.70
2022-07-25T12:40:26.831Z,32.38
2022-07-25T12:41:26.817Z,32.19
2022-07-25T12:42:26.821Z,32.13
2022-07-25T12:43:26.796Z,32.08
2022-07-25T12:44:26.821Z,32.40
2022-07-25T12:45:26.766Z,32.59
2022-07-25T12:46:26.795Z,32.85
2022-07-25T12:47:26.850Z,33.18
2022-07-25T12:48:26.791Z,33.38
2022-07-25T12:49:26.724Z,33.68
2022-07-25T12:50:26.744Z,33.91
2022-07-25T12:51:26.718Z,34.27
2022-07-25T12:52:26.803Z,34.40
2022-07-25T12:53:26.685Z,34.54